Time;durP1;ratioP1;P1;durP2;ratioP2;P2;SDS_P1;SDS_P2;PMS_P1;PMS_P2;Temp;Humidity;BMP_temperature;BMP_pressure;BME280_temperature;BME280_humidity;BME280_pressure;Samples;Min_cycle;Max_cycle;Signal;HPM_P1;HPM_P2
2023/11/06 00:01:33;;;;;;;3.03;1.02;;;;;;;;;;4977414;28;20037;-85
2023/11/06 00:04:18;;;;;;;3.60;0.90;;;;;;;;;;4974193;28;20027;-85
2023/11/06 00:07:04;;;;;;;1.13;1.00;;;;;;;;;;4965776;28;20022;-86
2023/11/06 00:09:50;;;;;;;4.60;0.95;;;;;;;;;;4979429;28;20157;-82
2023/11/06 00:12:36;;;;;;;4.75;1.20;;;;;;;;;;4994148;28;20061;-84
2023/11/06 00:15:21;;;;;;;1.02;0.90;;;;;;;;;;4995752;28;20072;-86
2023/11/06 00:18:07;;;;;;;4.35;1.30;;;;;;;;;;4994484;28;20137;-85
2023/11/06 00:20:53;;;;;;;4.40;1.00;;;;;;;;;;4992825;28;20041;-86
2023/11/06 00:23:38;;;;;;;1.88;1.05;;;;;;;;;;4995187;28;20025;-85
2023/11/06 00:26:23;;;;;;;3.13;1.23;;;;;;;;;;4997192;28;20034;-86
2023/11/06 00:29:09;;;;;;;1.42;0.93;;;;;;;;;;4992364;28;20062;-85
2023/11/06 00:31:54;;;;;;;4.28;1.48;;;;;;;;;;4995829;28;20088;-85
2023/11/06 00:34:39;;;;;;;2.33;1.23;;;;;;;;;;4993352;28;20480;-84
2023/11/06 00:37:24;;;;;;;3.55;1.30;;;;;;;;;;4976891;28;20076;-86
2023/11/06 00:40:10;;;;;;;2.00;1.15;;;;;;;;;;4974447;28;20026;-83
2023/11/06 00:42:55;;;;;;;2.03;1.23;;;;;;;;;;4989068;28;20034;-84
2023/11/06 00:45:40;;;;;;;3.53;0.90;;;;;;;;;;4992024;28;20026;-83
2023/11/06 00:48:25;;;;;;;4.53;1.42;;;;;;;;;;4977447;28;20075;-84
2023/11/06 00:51:10;;;;;;;2.03;1.10;;;;;;;;;;4989178;28;20022;-83
2023/11/06 00:53:56;;;;;;;2.63;1.08;;;;;;;;;;4989703;28;20037;-83
2023/11/06 00:56:41;;;;;;;1.60;0.85;;;;;;;;;;4993456;28;20030;-82
2023/11/06 00:59:26;;;;;;;3.22;1.00;;;;;;;;;;4989381;28;20038;-83
2023/11/06 01:02:11;;;;;;;2.33;0.90;;;;;;;;;;4986134;28;20370;-83
2023/11/06 01:04:57;;;;;;;6.28;1.60;;;;;;;;;;4989064;28;20041;-83
2023/11/06 01:07:42;;;;;;;3.45;1.10;;;;;;;;;;4990022;28;20034;-83
2023/11/06 01:10:28;;;;;;;5.28;1.33;;;;;;;;;;4979873;28;20595;-83
2023/11/06 01:13:14;;;;;;;1.73;1.10;;;;;;;;;;4987020;28;20104;-83
2023/11/06 01:15:59;;;;;;;2.60;1.20;;;;;;;;;;5002446;28;20524;-83
2023/11/06 01:18:45;;;;;;;4.07;2.05;;;;;;;;;;4993309;28;20080;-83
2023/11/06 01:21:31;;;;;;;5.63;1.17;;;;;;;;;;4991790;28;20045;-82
2023/11/06 01:24:16;;;;;;;6.13;1.33;;;;;;;;;;4988457;28;20033;-84
2023/11/06 01:27:02;;;;;;;1.77;0.93;;;;;;;;;;4989767;28;20052;-82
2023/11/06 01:29:47;;;;;;;3.92;1.35;;;;;;;;;;4993611;28;20073;-84
2023/11/06 01:32:33;;;;;;;2.53;1.15;;;;;;;;;;4996727;28;20103;-84
2023/11/06 01:35:19;;;;;;;3.17;1.00;;;;;;;;;;4987378;28;20022;-84
2023/11/06 01:38:04;;;;;;;4.35;1.00;;;;;;;;;;4991642;28;20025;-85
2023/11/06 01:40:50;;;;;;;8.05;1.50;;;;;;;;;;4992079;28;20029;-82
2023/11/06 01:43:35;;;;;;;6.05;1.25;;;;;;;;;;4979258;28;20027;-83
2023/11/06 01:46:21;;;;;;;4.93;1.45;;;;;;;;;;4990966;28;20057;-83
2023/11/06 01:49:07;;;;;;;6.22;1.73;;;;;;;;;;4988030;28;20030;-82
2023/11/06 01:51:52;;;;;;;3.03;1.17;;;;;;;;;;4992021;28;20026;-82
2023/11/06 01:54:38;;;;;;;2.88;1.05;;;;;;;;;;4990803;28;20030;-83
2023/11/06 01:57:24;;;;;;;2.22;1.20;;;;;;;;;;4991789;28;20018;-83
2023/11/06 02:00:10;;;;;;;4.63;1.20;;;;;;;;;;4996648;28;20018;-83
2023/11/06 02:02:55;;;;;;;8.80;1.17;;;;;;;;;;4984320;28;20026;-83
2023/11/06 02:05:41;;;;;;;4.30;1.50;;;;;;;;;;4991744;28;20033;-83
2023/11/06 02:08:27;;;;;;;4.18;1.58;;;;;;;;;;4986878;28;20061;-84
2023/11/06 02:11:12;;;;;;;1.65;0.98;;;;;;;;;;4993905;28;20602;-83
2023/11/06 02:13:58;;;;;;;4.30;1.15;;;;;;;;;;4996625;28;20037;-84
2023/11/06 02:16:44;;;;;;;5.28;0.82;;;;;;;;;;4990103;28;20045;-83
2023/11/06 02:19:29;;;;;;;5.10;1.30;;;;;;;;;;4989000;28;20037;-84
2023/11/06 02:22:15;;;;;;;3.75;0.90;;;;;;;;;;4993800;28;20038;-83
2023/11/06 02:25:00;;;;;;;4.05;1.13;;;;;;;;;;4995732;28;20022;-83
2023/11/06 02:27:47;;;;;;;3.85;1.13;;;;;;;;;;4992864;28;20045;-83
2023/11/06 02:30:32;;;;;;;5.68;1.20;;;;;;;;;;4976345;28;20034;-84
2023/11/06 02:33:18;;;;;;;2.90;1.25;;;;;;;;;;4989714;28;20033;-84
2023/11/06 02:36:03;;;;;;;3.67;1.52;;;;;;;;;;4992281;28;20030;-84
2023/11/06 02:38:48;;;;;;;2.70;1.20;;;;;;;;;;4987177;28;20038;-85
2023/11/06 02:41:33;;;;;;;8.13;1.27;;;;;;;;;;4991450;28;20041;-82
2023/11/06 02:44:19;;;;;;;7.20;1.10;;;;;;;;;;4995346;28;20077;-83
2023/11/06 02:47:04;;;;;;;3.83;0.98;;;;;;;;;;4993516;28;20060;-80
2023/11/06 02:49:50;;;;;;;5.47;1.00;;;;;;;;;;4976638;28;20033;-82
2023/11/06 02:52:35;;;;;;;6.28;1.25;;;;;;;;;;4994778;28;20021;-82
2023/11/06 02:55:20;;;;;;;4.15;1.00;;;;;;;;;;4992839;28;20029;-82
2023/11/06 02:58:05;;;;;;;5.68;1.05;;;;;;;;;;4986099;28;20033;-84
2023/11/06 03:00:51;;;;;;;2.38;1.00;;;;;;;;;;4977503;28;20489;-83
2023/11/06 03:03:36;;;;;;;4.70;0.90;;;;;;;;;;4993780;28;20385;-83
2023/11/06 03:06:25;;;;;;;1.85;1.35;;;;;;;;;;4997918;28;20026;-85
2023/11/06 03:09:12;;;;;;;2.55;0.90;;;;;;;;;;4991453;28;20018;-85
2023/11/06 03:11:57;;;;;;;3.13;1.10;;;;;;;;;;4995435;28;20046;-85
2023/11/06 03:14:42;;;;;;;4.55;1.10;;;;;;;;;;5001399;28;20121;-85
2023/11/06 03:17:27;;;;;;;3.42;0.85;;;;;;;;;;4994785;28;20531;-85
2023/11/06 03:20:12;;;;;;;2.35;0.90;;;;;;;;;;4990121;28;20135;-84
2023/11/06 03:22:57;;;;;;;7.32;0.98;;;;;;;;;;4998080;28;20041;-84
2023/11/06 03:25:43;;;;;;;3.55;0.98;;;;;;;;;;4998448;28;20018;-84
2023/11/06 03:28:28;;;;;;;2.67;1.05;;;;;;;;;;4990811;28;20037;-84
2023/11/06 03:31:13;;;;;;;2.58;1.23;;;;;;;;;;4989414;28;20030;-84
2023/11/06 03:33:58;;;;;;;2.25;0.90;;;;;;;;;;4998590;28;20044;-83
2023/11/06 03:36:47;;;;;;;4.15;1.17;;;;;;;;;;4997887;28;20499;-83
2023/11/06 03:39:32;;;;;;;2.08;1.00;;;;;;;;;;4987303;28;20033;-82
2023/11/06 03:42:17;;;;;;;0.88;0.73;;;;;;;;;;4979650;28;20037;-83
2023/11/06 03:45:04;;;;;;;2.70;1.10;;;;;;;;;;4998827;28;20037;-83
2023/11/06 03:47:49;;;;;;;3.70;1.05;;;;;;;;;;4998044;28;20037;-83
2023/11/06 03:50:34;;;;;;;4.07;1.00;;;;;;;;;;4981896;28;20018;-85
2023/11/06 03:53:20;;;;;;;1.42;0.82;;;;;;;;;;4996702;28;20034;-83
2023/11/06 03:56:05;;;;;;;2.63;1.05;;;;;;;;;;4997970;28;20037;-83
2023/11/06 03:58:50;;;;;;;3.22;1.23;;;;;;;;;;4989506;28;20106;-84
2023/11/06 04:01:35;;;;;;;3.17;0.95;;;;;;;;;;4987273;28;20034;-81
2023/11/06 04:04:21;;;;;;;1.20;0.90;;;;;;;;;;4993726;28;20076;-84
2023/11/06 04:07:06;;;;;;;4.90;1.17;;;;;;;;;;5012938;28;20174;-85
2023/11/06 04:09:52;;;;;;;5.85;1.23;;;;;;;;;;5014445;28;20046;-86
2023/11/06 04:12:37;;;;;;;4.47;1.88;;;;;;;;;;5013594;28;20038;-85
2023/11/06 04:15:22;;;;;;;3.13;1.33;;;;;;;;;;5015215;28;20044;-85
2023/11/06 04:18:08;;;;;;;5.70;1.20;;;;;;;;;;4998031;28;20041;-86
2023/11/06 04:20:54;;;;;;;3.78;1.40;;;;;;;;;;5008649;28;20034;-85
2023/11/06 04:23:39;;;;;;;2.05;1.20;;;;;;;;;;5006995;28;20022;-85
2023/11/06 04:26:24;;;;;;;3.25;1.00;;;;;;;;;;4989423;28;20483;-84
2023/11/06 04:29:10;;;;;;;4.20;1.45;;;;;;;;;;4993405;28;20100;-84
2023/11/06 04:31:55;;;;;;;4.28;1.20;;;;;;;;;;4992393;28;20026;-84
2023/11/06 04:34:40;;;;;;;2.97;1.00;;;;;;;;;;4990586;28;20030;-84
2023/11/06 04:37:26;;;;;;;3.13;1.00;;;;;;;;;;4997056;28;20807;-84
2023/11/06 04:40:11;;;;;;;5.47;0.98;;;;;;;;;;4994068;28;20025;-84
2023/11/06 04:42:56;;;;;;;4.75;0.93;;;;;;;;;;4991488;28;20436;-84
2023/11/06 04:45:41;;;;;;;1.92;1.00;;;;;;;;;;4993530;28;20045;-82
2023/11/06 04:48:28;;;;;;;2.92;0.98;;;;;;;;;;4993138;28;20025;-83
2023/11/06 04:51:16;;;;;;;2.50;0.85;;;;;;;;;;4994204;28;20018;-83
2023/11/06 04:54:02;;;;;;;2.78;1.63;;;;;;;;;;4990255;28;20068;-84
2023/11/06 04:56:48;;;;;;;7.47;2.03;;;;;;;;;;4991468;28;20037;-83
2023/11/06 04:59:33;;;;;;;5.47;1.25;;;;;;;;;;4988370;28;20108;-83
2023/11/06 05:02:19;;;;;;;4.90;1.38;;;;;;;;;;4994536;28;20018;-83
2023/11/06 05:05:06;;;;;;;4.90;1.15;;;;;;;;;;4995834;28;20026;-83
2023/11/06 05:07:51;;;;;;;6.82;1.55;;;;;;;;;;4986142;28;20031;-84
2023/11/06 05:10:37;;;;;;;2.03;0.80;;;;;;;;;;4991952;28;20045;-83
2023/11/06 05:13:22;;;;;;;2.33;1.02;;;;;;;;;;4983968;28;20029;-82
2023/11/06 05:16:08;;;;;;;3.72;1.30;;;;;;;;;;4994022;28;20221;-82
2023/11/06 05:18:53;;;;;;;5.90;1.38;;;;;;;;;;4993731;28;20037;-84
2023/11/06 05:21:39;;;;;;;2.65;0.90;;;;;;;;;;4987253;28;20037;-84
2023/11/06 05:24:25;;;;;;;3.10;0.98;;;;;;;;;;4991477;28;20511;-83
2023/11/06 05:27:10;;;;;;;3.47;1.15;;;;;;;;;;4994692;28;20022;-85
2023/11/06 05:29:55;;;;;;;2.85;1.38;;;;;;;;;;4987898;28;20026;-82
2023/11/06 05:32:40;;;;;;;6.00;1.20;;;;;;;;;;4987509;28;20037;-84
2023/11/06 05:35:26;;;;;;;5.40;1.10;;;;;;;;;;4980393;28;20025;-81
2023/11/06 05:38:11;;;;;;;4.03;1.52;;;;;;;;;;4991772;28;20010;-79
2023/11/06 05:40:56;;;;;;;4.38;1.20;;;;;;;;;;4991488;28;20025;-84
2023/11/06 05:43:41;;;;;;;5.38;0.85;;;;;;;;;;4988700;28;20120;-79
2023/11/06 05:46:26;;;;;;;3.95;1.10;;;;;;;;;;4991896;28;20021;-81
2023/11/06 05:49:12;;;;;;;1.90;1.05;;;;;;;;;;4987575;28;20026;-81
2023/11/06 05:51:57;;;;;;;7.82;1.10;;;;;;;;;;4987293;28;20018;-79
2023/11/06 05:54:42;;;;;;;4.35;1.98;;;;;;;;;;4991705;28;20037;-78
2023/11/06 05:57:28;;;;;;;4.30;1.20;;;;;;;;;;4994177;28;20022;-78
2023/11/06 06:00:15;;;;;;;2.75;1.13;;;;;;;;;;4994516;28;20042;-78
2023/11/06 06:03:01;;;;;;;3.95;1.50;;;;;;;;;;4995321;28;20022;-77
2023/11/06 06:05:46;;;;;;;7.53;2.47;;;;;;;;;;4987404;28;20101;-77
2023/11/06 06:08:31;;;;;;;4.07;1.10;;;;;;;;;;4986616;28;20488;-77
2023/11/06 06:11:17;;;;;;;2.75;1.15;;;;;;;;;;4976821;28;20493;-77
2023/11/06 06:14:03;;;;;;;5.68;1.33;;;;;;;;;;4994642;28;20026;-77
2023/11/06 06:16:51;;;;;;;5.70;1.40;;;;;;;;;;4980812;28;20447;-79
2023/11/06 06:19:36;;;;;;;4.43;1.40;;;;;;;;;;4992479;28;20030;-78
2023/11/06 06:22:21;;;;;;;4.57;1.70;;;;;;;;;;4990898;28;20029;-82
2023/11/06 06:25:07;;;;;;;3.70;1.63;;;;;;;;;;4993381;28;20120;-80
2023/11/06 06:27:52;;;;;;;1.85;1.10;;;;;;;;;;4996116;28;20056;-81
2023/11/06 06:30:37;;;;;;;3.00;1.58;;;;;;;;;;4993147;28;20062;-82
2023/11/06 06:33:23;;;;;;;2.33;1.10;;;;;;;;;;4994951;28;20030;-84
2023/11/06 06:36:26;;;;;;;4.05;1.80;;;;;;;;;;5000457;28;20231;-84
2023/11/06 06:39:12;;;;;;;3.47;1.80;;;;;;;;;;4992086;28;20034;-84
2023/11/06 06:41:57;;;;;;;4.25;1.42;;;;;;;;;;4996008;28;20551;-83
2023/11/06 06:44:43;;;;;;;1.77;1.23;;;;;;;;;;4995247;28;20105;-83
2023/11/06 06:47:28;;;;;;;2.75;1.25;;;;;;;;;;4996256;28;20038;-84
2023/11/06 06:50:13;;;;;;;2.83;1.38;;;;;;;;;;4995152;28;20156;-84
2023/11/06 06:52:59;;;;;;;4.47;1.33;;;;;;;;;;4986673;28;20026;-83
2023/11/06 06:55:44;;;;;;;4.85;1.45;;;;;;;;;;4997080;28;20547;-80
2023/11/06 06:58:29;;;;;;;4.15;1.30;;;;;;;;;;5013621;28;20649;-82
2023/11/06 07:01:17;;;;;;;4.43;1.58;;;;;;;;;;4978976;28;20125;-82
2023/11/06 07:04:03;;;;;;;3.63;1.20;;;;;;;;;;4979153;28;20068;-82
2023/11/06 07:06:48;;;;;;;4.28;2.08;;;;;;;;;;4996088;28;20065;-83
2023/11/06 07:09:33;;;;;;;5.10;1.45;;;;;;;;;;4996071;28;20029;-83
2023/11/06 07:12:19;;;;;;;3.88;1.60;;;;;;;;;;4995364;28;20034;-83
2023/11/06 07:15:04;;;;;;;3.03;1.15;;;;;;;;;;4993973;28;20041;-82
2023/11/06 07:17:50;;;;;;;1.25;0.82;;;;;;;;;;4994398;28;20550;-82
2023/11/06 07:20:35;;;;;;;4.07;1.23;;;;;;;;;;4982482;28;20133;-82
2023/11/06 07:23:21;;;;;;;2.92;1.00;;;;;;;;;;4995004;28;20064;-82
2023/11/06 07:26:06;;;;;;;4.32;1.20;;;;;;;;;;4995095;28;20097;-83
2023/11/06 07:28:52;;;;;;;3.33;1.30;;;;;;;;;;4994456;28;20030;-81
2023/11/06 07:31:37;;;;;;;2.63;1.20;;;;;;;;;;4994767;28;20030;-82
2023/11/06 07:34:22;;;;;;;4.18;1.40;;;;;;;;;;4994713;28;20101;-80
2023/11/06 07:37:09;;;;;;;2.25;1.67;;;;;;;;;;4983747;28;20508;-84
2023/11/06 07:39:55;;;;;;;2.60;1.23;;;;;;;;;;4983060;28;20085;-82
2023/11/06 07:42:40;;;;;;;6.13;1.58;;;;;;;;;;4995849;28;20808;-83
2023/11/06 07:45:26;;;;;;;1.88;1.00;;;;;;;;;;4994664;28;20452;-83
2023/11/06 07:48:13;;;;;;;4.40;1.17;;;;;;;;;;4995297;28;20033;-82
2023/11/06 07:50:58;;;;;;;4.05;1.30;;;;;;;;;;4978289;28;20057;-82
2023/11/06 07:53:43;;;;;;;3.05;0.90;;;;;;;;;;4994033;28;20036;-83
2023/11/06 07:56:29;;;;;;;1.00;0.90;;;;;;;;;;4976566;28;20030;-83
2023/11/06 07:59:14;;;;;;;1.95;1.25;;;;;;;;;;4993594;28;20065;-83
2023/11/06 08:01:59;;;;;;;4.20;1.58;;;;;;;;;;4990132;28;20381;-81
2023/11/06 08:04:44;;;;;;;5.25;2.63;;;;;;;;;;4980845;28;20034;-82
2023/11/06 08:07:30;;;;;;;4.55;1.73;;;;;;;;;;4994252;28;20022;-82
2023/11/06 08:10:15;;;;;;;4.78;2.42;;;;;;;;;;4993720;28;20082;-82
2023/11/06 08:13:00;;;;;;;4.13;1.40;;;;;;;;;;4994094;28;20498;-82
2023/11/06 08:15:45;;;;;;;4.65;1.60;;;;;;;;;;4993444;28;20091;-82
2023/11/06 08:18:30;;;;;;;7.07;1.55;;;;;;;;;;4994177;28;20025;-82
2023/11/06 08:21:16;;;;;;;2.95;1.85;;;;;;;;;;4994352;28;20040;-82
2023/11/06 08:24:01;;;;;;;9.20;1.65;;;;;;;;;;4993683;28;20472;-82
2023/11/06 08:26:46;;;;;;;6.35;1.67;;;;;;;;;;4994052;28;20026;-82
2023/11/06 08:29:33;;;;;;;3.15;1.13;;;;;;;;;;4993490;28;20069;-82
2023/11/06 08:35:46;;;;;;;4.03;1.30;;;;;;;;;;4984605;28;20038;-82
2023/11/06 08:38:31;;;;;;;4.35;1.90;;;;;;;;;;4993238;28;20118;-81
2023/11/06 08:41:16;;;;;;;5.97;2.00;;;;;;;;;;4993295;28;20038;-81
2023/11/06 08:44:02;;;;;;;1.90;1.38;;;;;;;;;;4993516;28;20095;-81
2023/11/06 08:46:47;;;;;;;6.00;1.73;;;;;;;;;;4973898;28;20093;-83
2023/11/06 08:49:32;;;;;;;4.28;1.42;;;;;;;;;;4975179;28;20052;-83
2023/11/06 08:52:17;;;;;;;7.15;2.05;;;;;;;;;;5008513;28;20033;-82
2023/11/06 08:55:03;;;;;;;2.45;1.90;;;;;;;;;;4992978;28;20055;-82
2023/11/06 08:57:48;;;;;;;2.13;0.95;;;;;;;;;;4981228;28;20030;-83
2023/11/06 09:00:33;;;;;;;2.45;1.17;;;;;;;;;;4996328;28;20025;-82
2023/11/06 09:03:18;;;;;;;5.43;1.48;;;;;;;;;;4978019;28;20046;-82
2023/11/06 09:06:04;;;;;;;4.18;1.30;;;;;;;;;;4986698;28;20476;-82
2023/11/06 09:08:49;;;;;;;0.93;0.77;;;;;;;;;;4993749;28;20121;-82
2023/11/06 09:11:38;;;;;;;2.05;0.80;;;;;;;;;;4992671;28;20121;-82
2023/11/06 09:14:23;;;;;;;4.30;1.05;;;;;;;;;;4993347;28;20022;-82
2023/11/06 09:17:08;;;;;;;4.03;0.90;;;;;;;;;;4974373;28;20034;-83
2023/11/06 09:19:53;;;;;;;5.57;1.42;;;;;;;;;;4976683;28;20036;-83
2023/11/06 09:22:40;;;;;;;4.28;1.48;;;;;;;;;;4992117;28;20026;-83
2023/11/06 09:25:26;;;;;;;4.63;1.30;;;;;;;;;;4992751;28;20480;-83
2023/11/06 09:28:11;;;;;;;6.28;1.08;;;;;;;;;;4992593;28;20080;-83
2023/11/06 09:30:56;;;;;;;1.75;0.90;;;;;;;;;;4992534;28;20037;-83
2023/11/06 09:33:42;;;;;;;3.20;1.20;;;;;;;;;;4993392;28;20034;-82
2023/11/06 09:36:27;;;;;;;3.47;1.40;;;;;;;;;;4987941;28;20041;-83
2023/11/06 09:39:12;;;;;;;3.90;1.10;;;;;;;;;;4987087;28;20061;-83
2023/11/06 09:41:57;;;;;;;1.90;1.00;;;;;;;;;;4991260;28;20029;-83
2023/11/06 09:44:44;;;;;;;3.35;1.08;;;;;;;;;;4992916;28;20109;-82
2023/11/06 09:47:29;;;;;;;4.28;1.17;;;;;;;;;;5006745;28;20083;-83
2023/11/06 09:50:18;;;;;;;1.48;0.90;;;;;;;;;;5021377;28;20033;-83
2023/11/06 09:53:04;;;;;;;5.38;1.10;;;;;;;;;;4992135;28;20025;-83
2023/11/06 09:55:53;;;;;;;3.13;1.40;;;;;;;;;;4992301;28;20036;-82
2023/11/06 09:58:38;;;;;;;1.20;0.95;;;;;;;;;;4974187;28;20022;-82
2023/11/06 10:01:27;;;;;;;1.40;0.90;;;;;;;;;;4985771;28;20042;-82
2023/11/06 10:04:13;;;;;;;5.32;1.27;;;;;;;;;;4973318;28;20465;-82
2023/11/06 10:06:59;;;;;;;5.07;1.38;;;;;;;;;;4990726;28;20040;-82
2023/11/06 10:09:44;;;;;;;1.10;0.90;;;;;;;;;;4992506;28;20077;-82
2023/11/06 10:12:31;;;;;;;3.08;1.08;;;;;;;;;;4974100;28;20072;-83
2023/11/06 10:15:24;;;;;;;3.08;1.33;;;;;;;;;;4976049;28;20033;-82
2023/11/06 10:18:13;;;;;;;3.13;1.00;;;;;;;;;;4993247;28;20097;-84
2023/11/06 10:20:58;;;;;;;3.23;1.17;;;;;;;;;;4992540;28;20073;-82
2023/11/06 10:23:46;;;;;;;2.47;1.20;;;;;;;;;;4991706;28;20295;-84
2023/11/06 10:26:32;;;;;;;1.75;0.82;;;;;;;;;;4992377;28;20030;-84
2023/11/06 10:29:17;;;;;;;3.83;1.20;;;;;;;;;;4991935;28;20107;-83
2023/11/06 10:32:02;;;;;;;0.85;0.70;;;;;;;;;;4992113;28;20885;-84
2023/11/06 10:34:48;;;;;;;2.00;0.90;;;;;;;;;;4992386;28;20025;-84
2023/11/06 10:37:38;;;;;;;5.03;1.30;;;;;;;;;;4965513;28;20026;-84
2023/11/06 10:40:31;;;;;;;3.75;1.17;;;;;;;;;;4976528;28;20034;-84
2023/11/06 10:43:17;;;;;;;2.05;1.10;;;;;;;;;;5003871;28;20059;-83
2023/11/06 10:46:07;;;;;;;5.13;2.00;;;;;;;;;;5005187;28;20528;-84
2023/11/06 10:49:03;;;;;;;2.70;1.13;;;;;;;;;;4993608;28;20029;-83
2023/11/06 10:51:50;;;;;;;1.85;0.70;;;;;;;;;;4996305;28;20066;-83
2023/11/06 10:54:36;;;;;;;3.40;0.90;;;;;;;;;;4996270;28;20033;-84
2023/11/06 10:57:22;;;;;;;4.53;1.00;;;;;;;;;;4987749;28;20029;-84
2023/11/06 11:00:11;;;;;;;2.58;0.82;;;;;;;;;;4975982;28;20105;-83
2023/11/06 11:02:58;;;;;;;;;;;;;;;;;;4989987;28;20133;-83
2023/11/06 11:05:43;;;;;;;3.20;0.93;;;;;;;;;;4996348;28;19920;-83
2023/11/06 11:08:30;;;;;;;1.13;0.82;;;;;;;;;;4995371;28;20514;-84
2023/11/06 11:11:16;;;;;;;2.50;1.00;;;;;;;;;;4996301;28;20112;-82
2023/11/06 11:14:01;;;;;;;1.63;0.80;;;;;;;;;;4994956;28;20030;-84
2023/11/06 11:16:50;;;;;;;1.08;0.80;;;;;;;;;;4996308;28;20358;-84
2023/11/06 11:19:36;;;;;;;1.60;0.77;;;;;;;;;;4996703;28;20477;-85
2023/11/06 11:22:21;;;;;;;2.05;0.90;;;;;;;;;;4996397;28;20042;-84
2023/11/06 11:25:06;;;;;;;1.52;0.70;;;;;;;;;;4996355;28;20547;-85
2023/11/06 11:28:13;;;;;;;0.90;0.90;;;;;;;;;;4976344;28;20519;-85
2023/11/06 11:31:18;;;;;;;2.67;0.90;;;;;;;;;;4985680;28;20022;-83
2023/11/06 11:34:05;;;;;;;2.05;0.90;;;;;;;;;;4996505;28;20036;-82
2023/11/06 11:36:50;;;;;;;2.17;1.25;;;;;;;;;;4996736;28;20538;-84
2023/11/06 11:39:48;;;;;;;4.20;1.10;;;;;;;;;;5006900;28;20030;-85
2023/11/06 11:42:33;;;;;;;3.20;1.02;;;;;;;;;;4997640;28;20034;-84
2023/11/06 11:45:31;;;;;;;1.42;0.73;;;;;;;;;;4995119;28;20018;-84
2023/11/06 11:48:16;;;;;;;4.93;1.15;;;;;;;;;;4994819;28;20044;-86
2023/11/06 11:51:02;;;;;;;1.85;1.23;;;;;;;;;;4993360;28;20084;-85
2023/11/06 11:53:47;;;;;;;1.33;0.70;;;;;;;;;;4994415;28;20095;-84
2023/11/06 11:56:48;;;;;;;2.47;0.85;;;;;;;;;;4992993;28;20041;-85
2023/11/06 11:59:46;;;;;;;2.63;0.88;;;;;;;;;;4977216;28;20038;-86
2023/11/06 12:02:34;;;;;;;2.45;0.80;;;;;;;;;;4990389;28;20030;-85
2023/11/06 12:05:19;;;;;;;0.85;0.82;;;;;;;;;;4977773;28;20058;-84
2023/11/06 12:08:13;;;;;;;1.25;0.82;;;;;;;;;;5000686;28;20036;-85
2023/11/06 12:11:06;;;;;;;2.35;0.90;;;;;;;;;;5014481;28;20102;-85
2023/11/06 12:13:52;;;;;;;2.28;0.80;;;;;;;;;;5017088;28;20030;-84
2023/11/06 12:16:50;;;;;;;0.65;0.60;;;;;;;;;;5017156;28;20085;-83
2023/11/06 12:19:39;;;;;;;2.65;1.00;;;;;;;;;;5013165;28;20284;-83
2023/11/06 12:22:24;;;;;;;0.85;0.68;;;;;;;;;;5007845;28;20472;-83
2023/11/06 12:25:10;;;;;;;1.35;0.80;;;;;;;;;;4975653;28;20038;-83
2023/11/06 12:28:01;;;;;;;4.43;1.80;;;;;;;;;;5005599;28;20097;-82
2023/11/06 12:30:52;;;;;;;3.30;0.70;;;;;;;;;;4995813;28;20128;-82
2023/11/06 12:33:37;;;;;;;1.17;0.88;;;;;;;;;;4995880;28;20054;-82
2023/11/06 12:36:26;;;;;;;1.13;0.65;;;;;;;;;;5005184;28;20061;-82
2023/11/06 12:39:24;;;;;;;0.80;0.70;;;;;;;;;;4993945;28;20030;-81
2023/11/06 12:42:09;;;;;;;2.58;0.60;;;;;;;;;;4994744;28;20060;-83
2023/11/06 12:44:57;;;;;;;4.10;0.90;;;;;;;;;;4994605;28;20028;-86
2023/11/06 12:47:44;;;;;;;1.65;0.80;;;;;;;;;;4993095;28;20018;-85
2023/11/06 12:50:34;;;;;;;1.02;0.80;;;;;;;;;;4980396;28;20068;-83
2023/11/06 12:53:20;;;;;;;0.68;0.60;;;;;;;;;;4999379;28;20137;-86
2023/11/06 12:56:05;;;;;;;1.17;0.80;;;;;;;;;;4994380;28;20029;-87
2023/11/06 12:58:54;;;;;;;2.05;0.60;;;;;;;;;;4974206;28;20114;-84
2023/11/06 13:01:41;;;;;;;1.88;0.70;;;;;;;;;;4975464;28;20080;-91
2023/11/06 13:04:27;;;;;;;2.20;0.80;;;;;;;;;;4990762;28;20118;-90
2023/11/06 13:07:13;;;;;;;0.50;0.50;;;;;;;;;;4993292;28;20460;-84
2023/11/06 13:09:59;;;;;;;1.45;0.50;;;;;;;;;;4993715;28;20057;-85
2023/11/06 13:12:44;;;;;;;1.50;0.60;;;;;;;;;;4993108;28;20603;-86
2023/11/06 13:15:30;;;;;;;1.25;0.70;;;;;;;;;;4994541;28;20323;-85
2023/11/06 13:18:15;;;;;;;0.90;0.70;;;;;;;;;;4993785;28;20112;-85
2023/11/06 13:21:18;;;;;;;1.27;0.80;;;;;;;;;;4994492;28;20558;-84
2023/11/06 13:24:05;;;;;;;2.85;1.25;;;;;;;;;;4992950;28;20041;-84
2023/11/06 13:26:51;;;;;;;1.13;0.63;;;;;;;;;;5002551;28;20110;-86
2023/11/06 13:29:36;;;;;;;1.05;0.70;;;;;;;;;;5008685;28;20028;-86
2023/11/06 13:32:22;;;;;;;0.82;0.70;;;;;;;;;;4991275;28;20392;-85
2023/11/06 13:35:07;;;;;;;2.10;0.60;;;;;;;;;;4993770;28;20018;-85
2023/11/06 13:37:53;;;;;;;1.13;1.02;;;;;;;;;;4992575;28;20590;-83
2023/11/06 13:40:43;;;;;;;0.85;0.80;;;;;;;;;;4993071;28;20037;-84
2023/11/06 13:43:28;;;;;;;2.90;0.77;;;;;;;;;;4992229;28;20471;-84
2023/11/06 13:46:14;;;;;;;0.90;0.60;;;;;;;;;;4993113;28;20041;-85
2023/11/06 13:49:00;;;;;;;0.80;0.60;;;;;;;;;;4993013;28;20369;-85
2023/11/06 13:51:47;;;;;;;1.17;0.95;;;;;;;;;;4992837;28;20018;-84
2023/11/06 13:54:34;;;;;;;1.58;0.82;;;;;;;;;;4973632;28;20125;-83
2023/11/06 13:57:22;;;;;;;0.80;0.70;;;;;;;;;;4981695;28;20617;-83
2023/11/06 14:00:31;;;;;;;0.93;0.82;;;;;;;;;;4992381;28;20488;-84
2023/11/06 14:03:23;;;;;;;0.70;0.70;;;;;;;;;;4984394;28;20029;-85
2023/11/06 14:06:16;;;;;;;0.60;0.60;;;;;;;;;;4992251;28;20612;-84
2023/11/06 14:09:15;;;;;;;0.60;0.60;;;;;;;;;;4987283;28;20041;-84
2023/11/06 14:12:00;;;;;;;1.10;0.60;;;;;;;;;;4977361;28;20054;-85
2023/11/06 14:14:45;;;;;;;2.30;0.63;;;;;;;;;;4993135;28;20022;-83
2023/11/06 14:17:31;;;;;;;2.67;1.08;;;;;;;;;;4992628;28;20041;-84
2023/11/06 14:20:16;;;;;;;3.38;0.95;;;;;;;;;;4983801;28;20022;-84
2023/11/06 14:23:01;;;;;;;1.35;0.60;;;;;;;;;;4998126;28;20021;-83
2023/11/06 14:25:48;;;;;;;1.27;0.73;;;;;;;;;;4996964;28;20025;-84
2023/11/06 14:28:33;;;;;;;2.10;0.88;;;;;;;;;;5009741;28;20111;-85
2023/11/06 14:31:18;;;;;;;2.47;0.77;;;;;;;;;;5005163;28;20038;-84
2023/11/06 14:34:04;;;;;;;0.70;0.60;;;;;;;;;;4996927;28;20097;-84
2023/11/06 14:36:49;;;;;;;7.80;0.93;;;;;;;;;;4988308;28;20026;-84
2023/11/06 14:39:37;;;;;;;2.50;0.90;;;;;;;;;;4995973;28;20396;-84
2023/11/06 14:42:22;;;;;;;1.63;0.65;;;;;;;;;;4995680;28;20030;-83
2023/11/06 14:45:11;;;;;;;1.30;0.70;;;;;;;;;;4982492;28;20070;-83
2023/11/06 14:47:56;;;;;;;2.55;0.80;;;;;;;;;;5010007;28;20022;-84
2023/11/06 14:50:42;;;;;;;1.88;0.90;;;;;;;;;;4995974;28;20460;-84
2023/11/06 14:53:27;;;;;;;1.02;0.57;;;;;;;;;;4996099;28;20391;-84
2023/11/06 14:56:14;;;;;;;1.20;0.77;;;;;;;;;;4995550;28;20032;-83
2023/11/06 14:59:00;;;;;;;11.90;2.33;;;;;;;;;;4995914;28;20026;-83
2023/11/06 15:01:45;;;;;;;0.90;0.70;;;;;;;;;;4995353;28;20026;-85
2023/11/06 15:04:32;;;;;;;1.70;0.80;;;;;;;;;;4976220;28;20034;-84
2023/11/06 15:07:18;;;;;;;1.67;0.77;;;;;;;;;;4980039;28;20029;-82
2023/11/06 15:10:04;;;;;;;0.60;0.50;;;;;;;;;;4995711;28;20034;-83
2023/11/06 15:12:50;;;;;;;5.38;1.13;;;;;;;;;;4995114;28;20412;-83
2023/11/06 15:15:35;;;;;;;16.23;2.65;;;;;;;;;;4996505;28;20022;-83
2023/11/06 15:18:21;;;;;;;1.65;1.15;;;;;;;;;;4984877;28;20631;-85
2023/11/06 15:21:06;;;;;;;0.77;0.50;;;;;;;;;;4976104;28;20030;-86
2023/11/06 15:23:55;;;;;;;1.10;0.70;;;;;;;;;;4996884;28;20033;-84
2023/11/06 15:26:40;;;;;;;1.80;0.80;;;;;;;;;;5014652;28;20027;-84
2023/11/06 15:29:27;;;;;;;0.63;0.60;;;;;;;;;;4977544;28;20040;-84
2023/11/06 15:32:13;;;;;;;1.40;0.70;;;;;;;;;;4994525;28;20030;-84
2023/11/06 15:34:58;;;;;;;1.30;0.82;;;;;;;;;;4995080;28;20025;-84
2023/11/06 15:37:44;;;;;;;0.73;0.57;;;;;;;;;;4982701;28;20034;-84
2023/11/06 15:40:29;;;;;;;2.60;0.70;;;;;;;;;;4995149;28;20026;-84
2023/11/06 15:43:14;;;;;;;1.17;0.88;;;;;;;;;;4994473;28;20057;-84
2023/11/06 15:45:59;;;;;;;0.80;0.80;;;;;;;;;;4996048;28;20034;-84
2023/11/06 15:48:45;;;;;;;3.67;0.90;;;;;;;;;;4995159;28;20017;-84
2023/11/06 15:51:32;;;;;;;1.50;0.77;;;;;;;;;;4997502;28;20080;-84
2023/11/06 15:54:17;;;;;;;0.98;0.80;;;;;;;;;;4994274;28;20038;-85
2023/11/06 15:57:02;;;;;;;1.88;0.80;;;;;;;;;;4981888;28;20026;-85
2023/11/06 15:59:48;;;;;;;1.92;0.80;;;;;;;;;;4983555;28;20036;-85
2023/11/06 16:02:33;;;;;;;4.38;1.25;;;;;;;;;;4988951;28;20292;-85
2023/11/06 16:05:18;;;;;;;3.38;1.05;;;;;;;;;;4996550;28;20103;-84
2023/11/06 16:08:04;;;;;;;2.58;1.00;;;;;;;;;;4995668;28;20033;-85
2023/11/06 16:10:49;;;;;;;2.22;0.88;;;;;;;;;;4995057;28;20046;-84
2023/11/06 16:13:34;;;;;;;3.53;1.33;;;;;;;;;;4981630;28;20076;-84
2023/11/06 16:16:20;;;;;;;2.22;0.90;;;;;;;;;;4994315;28;20112;-85
2023/11/06 16:19:06;;;;;;;2.33;0.82;;;;;;;;;;4995145;28;20077;-84
2023/11/06 16:21:51;;;;;;;0.95;0.80;;;;;;;;;;5013767;28;20494;-84
2023/11/06 16:24:36;;;;;;;1.05;0.85;;;;;;;;;;4994977;28;20029;-82
2023/11/06 16:27:24;;;;;;;3.30;1.30;;;;;;;;;;4995027;28;20033;-84
2023/11/06 16:30:19;;;;;;;3.40;1.13;;;;;;;;;;4978444;28;20034;-83
2023/11/06 16:33:04;;;;;;;2.50;1.30;;;;;;;;;;4995254;28;20022;-85
2023/11/06 16:35:49;;;;;;;3.63;1.48;;;;;;;;;;4994535;28;20030;-84
2023/11/06 16:38:34;;;;;;;3.15;1.00;;;;;;;;;;4982981;28;20108;-84
2023/11/06 16:41:20;;;;;;;1.13;0.90;;;;;;;;;;4995800;28;20030;-85